sensor_id;sensor_type;location;lat;lon;timestamp;temperature;humidity
64198;SHT31;50512;53.666;9.700;2022-08-18T00:02:02;19.06;96.87
64198;SHT31;50512;53.666;9.700;2022-08-18T00:04:28;19.04;96.58
64198;SHT31;50512;53.666;9.700;2022-08-18T00:06:54;18.99;96.66
64198;SHT31;50512;53.666;9.700;2022-08-18T00:09:19;19.03;96.51
64198;SHT31;50512;53.666;9.700;2022-08-18T00:11:45;18.99;96.73
64198;SHT31;50512;53.666;9.700;2022-08-18T00:14:13;19.02;97.07
64198;SHT31;50512;53.666;9.700;2022-08-18T00:16:40;19.07;97.25
64198;SHT31;50512;53.666;9.700;2022-08-18T00:19:06;19.08;97.34
64198;SHT31;50512;53.666;9.700;2022-08-18T00:21:31;19.13;97.12
64198;SHT31;50512;53.666;9.700;2022-08-18T00:23:57;19.18;96.92
64198;SHT31;50512;53.666;9.700;2022-08-18T00:26:22;19.18;96.00
64198;SHT31;50512;53.666;9.700;2022-08-18T00:28:48;19.18;95.91
64198;SHT31;50512;53.666;9.700;2022-08-18T00:31:13;19.18;96.30
64198;SHT31;50512;53.666;9.700;2022-08-18T00:33:40;19.16;96.55
64198;SHT31;50512;53.666;9.700;2022-08-18T00:36:06;19.17;95.81
64198;SHT31;50512;53.666;9.700;2022-08-18T00:38:31;19.10;96.08
64198;SHT31;50512;53.666;9.700;2022-08-18T00:40:57;19.08;95.75
64198;SHT31;50512;53.666;9.700;2022-08-18T00:43:28;19.02;95.52
64198;SHT31;50512;53.666;9.700;2022-08-18T00:45:55;19.04;96.00
64198;SHT31;50512;53.666;9.700;2022-08-18T00:48:21;18.99;95.91
64198;SHT31;50512;53.666;9.700;2022-08-18T00:50:51;18.96;95.87
64198;SHT31;50512;53.666;9.700;2022-08-18T00:53:19;18.93;95.95
64198;SHT31;50512;53.666;9.700;2022-08-18T00:55:47;18.95;95.88
64198;SHT31;50512;53.666;9.700;2022-08-18T00:58:18;18.92;95.59
64198;SHT31;50512;53.666;9.700;2022-08-18T01:00:45;18.95;95.05
64198;SHT31;50512;53.666;9.700;2022-08-18T01:03:14;18.89;95.23
64198;SHT31;50512;53.666;9.700;2022-08-18T01:05:44;18.93;95.27
64198;SHT31;50512;53.666;9.700;2022-08-18T01:08:14;18.96;94.61
64198;SHT31;50512;53.666;9.700;2022-08-18T01:10:42;19.00;94.39
64198;SHT31;50512;53.666;9.700;2022-08-18T01:13:08;18.93;94.55
64198;SHT31;50512;53.666;9.700;2022-08-18T01:15:34;18.96;94.91
64198;SHT31;50512;53.666;9.700;2022-08-18T01:18:03;18.93;94.40
64198;SHT31;50512;53.666;9.700;2022-08-18T01:20:43;18.87;94.78
64198;SHT31;50512;53.666;9.700;2022-08-18T01:23:14;18.85;94.99
64198;SHT31;50512;53.666;9.700;2022-08-18T01:25:41;18.86;95.34
64198;SHT31;50512;53.666;9.700;2022-08-18T01:28:06;18.80;95.43
64198;SHT31;50512;53.666;9.700;2022-08-18T01:30:44;18.72;95.64
64198;SHT31;50512;53.666;9.700;2022-08-18T01:33:09;18.65;95.91
64198;SHT31;50512;53.666;9.700;2022-08-18T01:35:35;18.65;94.85
64198;SHT31;50512;53.666;9.700;2022-08-18T01:38:00;18.61;94.74
64198;SHT31;50512;53.666;9.700;2022-08-18T01:40:27;18.53;94.58
64198;SHT31;50512;53.666;9.700;2022-08-18T01:42:53;18.48;95.05
64198;SHT31;50512;53.666;9.700;2022-08-18T01:45:18;18.41;95.56
64198;SHT31;50512;53.666;9.700;2022-08-18T01:47:44;18.40;95.17
64198;SHT31;50512;53.666;9.700;2022-08-18T01:50:09;18.32;95.45
64198;SHT31;50512;53.666;9.700;2022-08-18T01:52:35;18.30;95.37
64198;SHT31;50512;53.666;9.700;2022-08-18T01:55:01;18.21;95.55
64198;SHT31;50512;53.666;9.700;2022-08-18T01:57:28;18.20;96.11
64198;SHT31;50512;53.666;9.700;2022-08-18T01:59:53;18.17;96.42
64198;SHT31;50512;53.666;9.700;2022-08-18T02:02:22;18.06;96.33
64198;SHT31;50512;53.666;9.700;2022-08-18T02:04:50;18.03;96.57
64198;SHT31;50512;53.666;9.700;2022-08-18T02:07:17;18.11;96.25
64198;SHT31;50512;53.666;9.700;2022-08-18T02:09:43;18.11;96.32
64198;SHT31;50512;53.666;9.700;2022-08-18T02:12:09;18.06;96.22
64198;SHT31;50512;53.666;9.700;2022-08-18T02:14:36;18.06;95.91
64198;SHT31;50512;53.666;9.700;2022-08-18T02:17:04;18.01;95.96
64198;SHT31;50512;53.666;9.700;2022-08-18T02:19:32;18.00;95.58
64198;SHT31;50512;53.666;9.700;2022-08-18T02:21:58;17.90;96.27
64198;SHT31;50512;53.666;9.700;2022-08-18T02:24:23;17.87;96.62
64198;SHT31;50512;53.666;9.700;2022-08-18T02:26:49;17.91;97.50
64198;SHT31;50512;53.666;9.700;2022-08-18T02:29:14;17.94;96.60
64198;SHT31;50512;53.666;9.700;2022-08-18T02:31:41;17.93;96.21
64198;SHT31;50512;53.666;9.700;2022-08-18T02:34:07;17.90;96.68
64198;SHT31;50512;53.666;9.700;2022-08-18T02:36:32;17.90;97.19
64198;SHT31;50512;53.666;9.700;2022-08-18T02:38:57;17.90;97.16
64198;SHT31;50512;53.666;9.700;2022-08-18T02:41:23;17.91;96.38
64198;SHT31;50512;53.666;9.700;2022-08-18T02:43:48;17.86;96.25
64198;SHT31;50512;53.666;9.700;2022-08-18T02:46:14;17.85;97.39
64198;SHT31;50512;53.666;9.700;2022-08-18T02:48:41;17.87;96.06
64198;SHT31;50512;53.666;9.700;2022-08-18T02:51:10;17.83;96.27
64198;SHT31;50512;53.666;9.700;2022-08-18T02:53:36;17.79;97.03
64198;SHT31;50512;53.666;9.700;2022-08-18T02:56:07;17.82;97.61
64198;SHT31;50512;53.666;9.700;2022-08-18T02:58:33;17.80;97.66
64198;SHT31;50512;53.666;9.700;2022-08-18T03:00:58;17.80;97.59
64198;SHT31;50512;53.666;9.700;2022-08-18T03:03:24;17.79;97.61
64198;SHT31;50512;53.666;9.700;2022-08-18T03:05:51;17.75;97.12
64198;SHT31;50512;53.666;9.700;2022-08-18T03:08:16;17.72;96.98
64198;SHT31;50512;53.666;9.700;2022-08-18T03:10:42;17.62;97.00
64198;SHT31;50512;53.666;9.700;2022-08-18T03:13:07;17.56;96.19
64198;SHT31;50512;53.666;9.700;2022-08-18T03:15:33;17.62;95.77
64198;SHT31;50512;53.666;9.700;2022-08-18T03:17:58;17.61;96.54
64198;SHT31;50512;53.666;9.700;2022-08-18T03:20:24;17.58;96.25
64198;SHT31;50512;53.666;9.700;2022-08-18T03:22:51;17.52;96.53
64198;SHT31;50512;53.666;9.700;2022-08-18T03:25:16;17.52;97.34
64198;SHT31;50512;53.666;9.700;2022-08-18T03:27:42;17.58;96.33
64198;SHT31;50512;53.666;9.700;2022-08-18T03:30:08;17.59;96.26
64198;SHT31;50512;53.666;9.700;2022-08-18T03:32:33;17.59;96.69
64198;SHT31;50512;53.666;9.700;2022-08-18T03:34:59;17.59;96.38
64198;SHT31;50512;53.666;9.700;2022-08-18T03:37:24;17.56;96.62
64198;SHT31;50512;53.666;9.700;2022-08-18T03:39:51;17.56;96.53
64198;SHT31;50512;53.666;9.700;2022-08-18T03:42:17;17.55;96.20
64198;SHT31;50512;53.666;9.700;2022-08-18T03:44:42;17.52;96.39
64198;SHT31;50512;53.666;9.700;2022-08-18T03:47:08;17.52;96.30
64198;SHT31;50512;53.666;9.700;2022-08-18T03:49:35;17.58;96.89
64198;SHT31;50512;53.666;9.700;2022-08-18T03:52:01;17.63;97.34
64198;SHT31;50512;53.666;9.700;2022-08-18T03:54:27;17.65;97.49
64198;SHT31;50512;53.666;9.700;2022-08-18T03:56:54;17.61;96.96
64198;SHT31;50512;53.666;9.700;2022-08-18T03:59:21;17.53;96.65
64198;SHT31;50512;53.666;9.700;2022-08-18T04:01:49;17.52;97.55
64198;SHT31;50512;53.666;9.700;2022-08-18T04:04:16;17.55;97.04
64198;SHT31;50512;53.666;9.700;2022-08-18T04:06:44;17.46;96.67
64198;SHT31;50512;53.666;9.700;2022-08-18T04:09:13;17.51;96.82
64198;SHT31;50512;53.666;9.700;2022-08-18T04:11:39;17.46;96.49
64198;SHT31;50512;53.666;9.700;2022-08-18T04:14:06;17.46;96.82
64198;SHT31;50512;53.666;9.700;2022-08-18T04:16:32;17.43;96.91
64198;SHT31;50512;53.666;9.700;2022-08-18T04:18:58;17.38;96.88
64198;SHT31;50512;53.666;9.700;2022-08-18T04:21:23;17.42;97.30
64198;SHT31;50512;53.666;9.700;2022-08-18T04:23:49;17.39;97.11
64198;SHT31;50512;53.666;9.700;2022-08-18T04:26:14;17.38;97.62
64198;SHT31;50512;53.666;9.700;2022-08-18T04:28:40;17.39;97.19
64198;SHT31;50512;53.666;9.700;2022-08-18T04:31:08;17.42;97.57
64198;SHT31;50512;53.666;9.700;2022-08-18T04:33:34;17.45;97.83
64198;SHT31;50512;53.666;9.700;2022-08-18T04:36:06;17.55;98.20
64198;SHT31;50512;53.666;9.700;2022-08-18T04:38:32;17.58;98.31
64198;SHT31;50512;53.666;9.700;2022-08-18T04:40:57;17.68;98.28
64198;SHT31;50512;53.666;9.700;2022-08-18T04:43:23;17.69;98.15
64198;SHT31;50512;53.666;9.700;2022-08-18T04:45:48;17.73;97.85
64198;SHT31;50512;53.666;9.700;2022-08-18T04:48:16;17.75;97.93
64198;SHT31;50512;53.666;9.700;2022-08-18T04:50:41;17.79;97.92
64198;SHT31;50512;53.666;9.700;2022-08-18T04:53:08;17.86;97.58
64198;SHT31;50512;53.666;9.700;2022-08-18T04:55:33;17.93;97.12
64198;SHT31;50512;53.666;9.700;2022-08-18T04:57:59;17.96;96.93
64198;SHT31;50512;53.666;9.700;2022-08-18T05:00:25;17.96;97.21
64198;SHT31;50512;53.666;9.700;2022-08-18T05:02:50;17.97;97.29
64198;SHT31;50512;53.666;9.700;2022-08-18T05:05:17;18.07;96.91
64198;SHT31;50512;53.666;9.700;2022-08-18T05:07:44;18.11;96.72
64198;SHT31;50512;53.666;9.700;2022-08-18T05:10:09;18.18;95.92
64198;SHT31;50512;53.666;9.700;2022-08-18T05:12:35;18.25;95.75
64198;SHT31;50512;53.666;9.700;2022-08-18T05:15:00;18.32;95.95
64198;SHT31;50512;53.666;9.700;2022-08-18T05:17:26;18.44;95.93
64198;SHT31;50512;53.666;9.700;2022-08-18T05:19:51;18.49;96.00
64198;SHT31;50512;53.666;9.700;2022-08-18T05:22:18;18.51;96.24
64198;SHT31;50512;53.666;9.700;2022-08-18T05:24:44;18.56;95.97
64198;SHT31;50512;53.666;9.700;2022-08-18T05:27:10;18.59;96.36
64198;SHT31;50512;53.666;9.700;2022-08-18T05:29:35;18.62;96.37
64198;SHT31;50512;53.666;9.700;2022-08-18T05:32:02;18.73;96.66
64198;SHT31;50512;53.666;9.700;2022-08-18T05:34:27;18.80;96.67
64198;SHT31;50512;53.666;9.700;2022-08-18T05:37:02;18.89;95.84
64198;SHT31;50512;53.666;9.700;2022-08-18T05:39:37;18.80;95.77
64198;SHT31;50512;53.666;9.700;2022-08-18T05:42:07;18.86;96.20
64198;SHT31;50512;53.666;9.700;2022-08-18T05:44:38;19.03;95.74
64198;SHT31;50512;53.666;9.700;2022-08-18T05:47:07;19.18;95.28
64198;SHT31;50512;53.666;9.700;2022-08-18T05:49:35;19.31;94.91
64198;SHT31;50512;53.666;9.700;2022-08-18T05:52:04;19.39;94.77
64198;SHT31;50512;53.666;9.700;2022-08-18T05:54:37;19.48;94.37
64198;SHT31;50512;53.666;9.700;2022-08-18T05:57:08;19.58;94.83
64198;SHT31;50512;53.666;9.700;2022-08-18T05:59:36;19.65;94.63
64198;SHT31;50512;53.666;9.700;2022-08-18T06:02:07;19.72;94.51
64198;SHT31;50512;53.666;9.700;2022-08-18T06:04:42;19.76;94.61
64198;SHT31;50512;53.666;9.700;2022-08-18T06:07:11;19.86;94.37
64198;SHT31;50512;53.666;9.700;2022-08-18T06:09:42;19.85;94.36
64198;SHT31;50512;53.666;9.700;2022-08-18T06:12:18;19.94;94.41
64198;SHT31;50512;53.666;9.700;2022-08-18T06:14:43;19.92;93.28
64198;SHT31;50512;53.666;9.700;2022-08-18T06:17:25;20.01;93.82
64198;SHT31;50512;53.666;9.700;2022-08-18T06:20:02;20.06;94.00
64198;SHT31;50512;53.666;9.700;2022-08-18T06:22:37;20.26;94.23
64198;SHT31;50512;53.666;9.700;2022-08-18T06:25:13;20.17;93.52
64198;SHT31;50512;53.666;9.700;2022-08-18T06:27:45;20.27;93.80
64198;SHT31;50512;53.666;9.700;2022-08-18T06:30:17;20.38;93.18
64198;SHT31;50512;53.666;9.700;2022-08-18T06:33:00;20.47;92.96
64198;SHT31;50512;53.666;9.700;2022-08-18T06:35:32;20.64;93.17
64198;SHT31;50512;53.666;9.700;2022-08-18T06:38:09;20.68;92.21
64198;SHT31;50512;53.666;9.700;2022-08-18T06:40:39;20.73;92.42
64198;SHT31;50512;53.666;9.700;2022-08-18T06:43:09;20.68;91.85
64198;SHT31;50512;53.666;9.700;2022-08-18T06:45:37;20.78;91.68
64198;SHT31;50512;53.666;9.700;2022-08-18T06:48:07;20.78;91.28
64198;SHT31;50512;53.666;9.700;2022-08-18T06:50:40;20.76;91.89
64198;SHT31;50512;53.666;9.700;2022-08-18T06:53:09;20.55;91.91
64198;SHT31;50512;53.666;9.700;2022-08-18T06:55:37;20.55;93.10
64198;SHT31;50512;53.666;9.700;2022-08-18T06:58:18;20.48;92.87
64198;SHT31;50512;53.666;9.700;2022-08-18T07:00:54;20.43;92.30
64198;SHT31;50512;53.666;9.700;2022-08-18T07:03:23;20.45;92.37
64198;SHT31;50512;53.666;9.700;2022-08-18T07:06:06;20.30;92.53
64198;SHT31;50512;53.666;9.700;2022-08-18T07:08:34;20.24;92.28
64198;SHT31;50512;53.666;9.700;2022-08-18T07:11:11;20.21;92.83
64198;SHT31;50512;53.666;9.700;2022-08-18T07:13:39;20.28;93.13
64198;SHT31;50512;53.666;9.700;2022-08-18T07:16:21;20.26;92.49
64198;SHT31;50512;53.666;9.700;2022-08-18T07:18:47;20.30;93.26
64198;SHT31;50512;53.666;9.700;2022-08-18T07:21:23;20.28;92.87
64198;SHT31;50512;53.666;9.700;2022-08-18T07:23:58;20.34;93.11
64198;SHT31;50512;53.666;9.700;2022-08-18T07:26:24;20.38;92.95
64198;SHT31;50512;53.666;9.700;2022-08-18T07:28:51;20.35;92.34
64198;SHT31;50512;53.666;9.700;2022-08-18T07:31:34;20.30;92.54
64198;SHT31;50512;53.666;9.700;2022-08-18T07:34:05;20.45;92.65
64198;SHT31;50512;53.666;9.700;2022-08-18T07:36:34;20.62;92.31
64198;SHT31;50512;53.666;9.700;2022-08-18T07:39:08;20.76;92.13
64198;SHT31;50512;53.666;9.700;2022-08-18T07:41:38;20.73;91.72
64198;SHT31;50512;53.666;9.700;2022-08-18T07:44:13;20.88;91.26
64198;SHT31;50512;53.666;9.700;2022-08-18T07:46:43;20.86;90.85
64198;SHT31;50512;53.666;9.700;2022-08-18T07:49:15;20.76;90.94
64198;SHT31;50512;53.666;9.700;2022-08-18T07:51:46;20.76;91.64
64198;SHT31;50512;53.666;9.700;2022-08-18T07:54:18;20.82;91.59
64198;SHT31;50512;53.666;9.700;2022-08-18T07:56:50;20.88;91.49
64198;SHT31;50512;53.666;9.700;2022-08-18T07:59:25;20.93;91.07
64198;SHT31;50512;53.666;9.700;2022-08-18T08:02:03;20.95;90.41
64198;SHT31;50512;53.666;9.700;2022-08-18T08:04:38;21.07;90.86
64198;SHT31;50512;53.666;9.700;2022-08-18T08:07:09;21.16;90.31
64198;SHT31;50512;53.666;9.700;2022-08-18T08:09:45;21.17;90.08
64198;SHT31;50512;53.666;9.700;2022-08-18T08:12:17;21.02;90.02
64198;SHT31;50512;53.666;9.700;2022-08-18T08:14:50;21.17;89.61
64198;SHT31;50512;53.666;9.700;2022-08-18T08:17:24;21.28;90.31
64198;SHT31;50512;53.666;9.700;2022-08-18T08:20:04;21.41;89.90
64198;SHT31;50512;53.666;9.700;2022-08-18T08:22:37;21.50;88.41
64198;SHT31;50512;53.666;9.700;2022-08-18T08:25:07;21.51;89.02
64198;SHT31;50512;53.666;9.700;2022-08-18T08:27:43;21.41;88.75
64198;SHT31;50512;53.666;9.700;2022-08-18T08:30:14;21.47;89.48
64198;SHT31;50512;53.666;9.700;2022-08-18T08:32:48;21.48;88.87
64198;SHT31;50512;53.666;9.700;2022-08-18T08:35:20;21.55;89.23
64198;SHT31;50512;53.666;9.700;2022-08-18T08:37:50;21.64;87.75
64198;SHT31;50512;53.666;9.700;2022-08-18T08:40:19;21.66;88.85
64198;SHT31;50512;53.666;9.700;2022-08-18T08:42:50;21.77;88.02
64198;SHT31;50512;53.666;9.700;2022-08-18T08:45:23;21.68;87.86
64198;SHT31;50512;53.666;9.700;2022-08-18T08:47:56;21.77;88.10
64198;SHT31;50512;53.666;9.700;2022-08-18T08:50:26;21.93;88.13
64198;SHT31;50512;53.666;9.700;2022-08-18T08:52:55;22.13;86.40
64198;SHT31;50512;53.666;9.700;2022-08-18T08:55:24;22.79;83.73
64198;SHT31;50512;53.666;9.700;2022-08-18T08:57:54;23.09;81.33
64198;SHT31;50512;53.666;9.700;2022-08-18T09:00:23;23.10;82.54
64198;SHT31;50512;53.666;9.700;2022-08-18T09:02:56;23.15;81.37
64198;SHT31;50512;53.666;9.700;2022-08-18T09:05:25;23.10;81.58
64198;SHT31;50512;53.666;9.700;2022-08-18T09:08:13;22.88;83.49
64198;SHT31;50512;53.666;9.700;2022-08-18T09:10:55;22.89;84.36
64198;SHT31;50512;53.666;9.700;2022-08-18T09:13:55;22.87;82.77
64198;SHT31;50512;53.666;9.700;2022-08-18T09:16:39;22.95;83.12
64198;SHT31;50512;53.666;9.700;2022-08-18T09:19:24;22.98;81.49
64198;SHT31;50512;53.666;9.700;2022-08-18T09:21:57;23.10;82.81
64198;SHT31;50512;53.666;9.700;2022-08-18T09:24:26;23.19;82.93
64198;SHT31;50512;53.666;9.700;2022-08-18T09:27:11;23.36;83.39
64198;SHT31;50512;53.666;9.700;2022-08-18T09:29:47;23.60;81.52
64198;SHT31;50512;53.666;9.700;2022-08-18T09:32:54;23.78;80.41
64198;SHT31;50512;53.666;9.700;2022-08-18T09:38:18;24.16;80.16
64198;SHT31;50512;53.666;9.700;2022-08-18T09:40:46;23.92;78.97
64198;SHT31;50512;53.666;9.700;2022-08-18T09:43:30;23.91;80.34
64198;SHT31;50512;53.666;9.700;2022-08-18T09:45:58;23.53;79.93
64198;SHT31;50512;53.666;9.700;2022-08-18T09:48:27;23.67;81.43
64198;SHT31;50512;53.666;9.700;2022-08-18T10:03:23;24.05;80.14
64198;SHT31;50512;53.666;9.700;2022-08-18T10:06:16;23.95;78.32
64198;SHT31;50512;53.666;9.700;2022-08-18T10:08:56;24.01;79.74
64198;SHT31;50512;53.666;9.700;2022-08-18T10:11:38;24.01;80.09
64198;SHT31;50512;53.666;9.700;2022-08-18T10:17:01;24.10;80.05
64198;SHT31;50512;53.666;9.700;2022-08-18T10:19:33;24.16;79.49
64198;SHT31;50512;53.666;9.700;2022-08-18T10:22:04;24.15;79.88
64198;SHT31;50512;53.666;9.700;2022-08-18T10:24:33;24.12;78.94
64198;SHT31;50512;53.666;9.700;2022-08-18T10:27:01;24.19;79.99
64198;SHT31;50512;53.666;9.700;2022-08-18T10:29:50;24.27;80.08
64198;SHT31;50512;53.666;9.700;2022-08-18T10:38:17;24.74;75.54
64198;SHT31;50512;53.666;9.700;2022-08-18T10:40:53;24.92;76.56
64198;SHT31;50512;53.666;9.700;2022-08-18T10:43:28;25.15;72.90
64198;SHT31;50512;53.666;9.700;2022-08-18T10:45:54;24.96;74.10
64198;SHT31;50512;53.666;9.700;2022-08-18T10:48:22;24.94;75.57
64198;SHT31;50512;53.666;9.700;2022-08-18T10:50:51;25.09;74.84
64198;SHT31;50512;53.666;9.700;2022-08-18T10:53:26;25.07;73.38
64198;SHT31;50512;53.666;9.700;2022-08-18T10:55:59;25.20;74.05
64198;SHT31;50512;53.666;9.700;2022-08-18T10:58:43;25.08;72.99
64198;SHT31;50512;53.666;9.700;2022-08-18T11:01:15;25.28;73.09
64198;SHT31;50512;53.666;9.700;2022-08-18T11:04:04;25.20;72.92
64198;SHT31;50512;53.666;9.700;2022-08-18T11:06:38;25.33;73.66
64198;SHT31;50512;53.666;9.700;2022-08-18T11:09:07;25.26;74.40
64198;SHT31;50512;53.666;9.700;2022-08-18T11:11:37;25.39;73.92
64198;SHT31;50512;53.666;9.700;2022-08-18T11:14:12;25.66;73.19
64198;SHT31;50512;53.666;9.700;2022-08-18T11:16:47;25.67;72.58
64198;SHT31;50512;53.666;9.700;2022-08-18T11:19:19;25.60;72.42
64198;SHT31;50512;53.666;9.700;2022-08-18T11:21:46;25.64;75.02
64198;SHT31;50512;53.666;9.700;2022-08-18T11:24:19;25.80;74.21
64198;SHT31;50512;53.666;9.700;2022-08-18T11:26:47;25.78;72.92
64198;SHT31;50512;53.666;9.700;2022-08-18T11:29:31;25.75;72.24
64198;SHT31;50512;53.666;9.700;2022-08-18T11:32:03;25.67;73.37
64198;SHT31;50512;53.666;9.700;2022-08-18T11:34:35;25.84;72.91
64198;SHT31;50512;53.666;9.700;2022-08-18T11:37:04;26.24;73.25
64198;SHT31;50512;53.666;9.700;2022-08-18T11:39:32;26.26;73.22
64198;SHT31;50512;53.666;9.700;2022-08-18T11:41:58;26.06;70.37
64198;SHT31;50512;53.666;9.700;2022-08-18T11:44:28;26.35;69.94
64198;SHT31;50512;53.666;9.700;2022-08-18T11:46:55;26.22;69.52
64198;SHT31;50512;53.666;9.700;2022-08-18T11:49:32;26.28;71.18
64198;SHT31;50512;53.666;9.700;2022-08-18T11:52:00;26.26;71.23
64198;SHT31;50512;53.666;9.700;2022-08-18T11:54:35;26.28;71.30
64198;SHT31;50512;53.666;9.700;2022-08-18T11:57:27;26.12;72.63
64198;SHT31;50512;53.666;9.700;2022-08-18T11:59:52;26.17;72.92
64198;SHT31;50512;53.666;9.700;2022-08-18T12:02:19;26.17;72.21
64198;SHT31;50512;53.666;9.700;2022-08-18T12:04:49;26.19;72.38
64198;SHT31;50512;53.666;9.700;2022-08-18T12:07:16;26.19;71.27
64198;SHT31;50512;53.666;9.700;2022-08-18T12:09:47;26.61;71.22
64198;SHT31;50512;53.666;9.700;2022-08-18T12:12:15;26.53;69.43
64198;SHT31;50512;53.666;9.700;2022-08-18T12:14:54;26.45;71.18
64198;SHT31;50512;53.666;9.700;2022-08-18T12:17:19;26.43;71.99
64198;SHT31;50512;53.666;9.700;2022-08-18T12:19:45;26.46;71.58
64198;SHT31;50512;53.666;9.700;2022-08-18T12:22:14;26.63;71.97
64198;SHT31;50512;53.666;9.700;2022-08-18T12:24:40;26.80;70.57
64198;SHT31;50512;53.666;9.700;2022-08-18T12:27:07;26.69;67.56
64198;SHT31;50512;53.666;9.700;2022-08-18T12:29:33;26.82;69.97
64198;SHT31;50512;53.666;9.700;2022-08-18T12:31:58;26.76;69.42
64198;SHT31;50512;53.666;9.700;2022-08-18T12:34:24;26.69;69.81
64198;SHT31;50512;53.666;9.700;2022-08-18T12:36:50;26.55;69.85
64198;SHT31;50512;53.666;9.700;2022-08-18T12:39:16;26.64;69.83
64198;SHT31;50512;53.666;9.700;2022-08-18T12:41:42;26.83;69.72
64198;SHT31;50512;53.666;9.700;2022-08-18T12:44:09;26.88;68.04
64198;SHT31;50512;53.666;9.700;2022-08-18T12:46:34;26.80;67.59
64198;SHT31;50512;53.666;9.700;2022-08-18T12:49:01;26.84;67.59
64198;SHT31;50512;53.666;9.700;2022-08-18T12:51:27;26.70;69.18
64198;SHT31;50512;53.666;9.700;2022-08-18T12:53:52;26.66;70.50
64198;SHT31;50512;53.666;9.700;2022-08-18T12:56:21;26.73;70.35
64198;SHT31;50512;53.666;9.700;2022-08-18T12:58:48;26.74;69.56
64198;SHT31;50512;53.666;9.700;2022-08-18T13:01:15;26.76;69.53
64198;SHT31;50512;53.666;9.700;2022-08-18T13:03:40;26.56;68.95
64198;SHT31;50512;53.666;9.700;2022-08-18T13:06:06;26.60;70.16
64198;SHT31;50512;53.666;9.700;2022-08-18T13:08:32;26.69;70.58
64198;SHT31;50512;53.666;9.700;2022-08-18T13:10:57;26.88;70.92
64198;SHT31;50512;53.666;9.700;2022-08-18T13:13:22;26.97;68.91
64198;SHT31;50512;53.666;9.700;2022-08-18T13:15:48;26.76;68.31
64198;SHT31;50512;53.666;9.700;2022-08-18T13:18:15;26.55;69.35
64198;SHT31;50512;53.666;9.700;2022-08-18T13:20:41;26.56;69.62
64198;SHT31;50512;53.666;9.700;2022-08-18T13:23:06;26.63;69.71
64198;SHT31;50512;53.666;9.700;2022-08-18T13:25:32;26.67;70.52
64198;SHT31;50512;53.666;9.700;2022-08-18T13:27:57;26.50;68.92
64198;SHT31;50512;53.666;9.700;2022-08-18T13:30:23;26.50;68.34
64198;SHT31;50512;53.666;9.700;2022-08-18T13:32:49;26.60;70.02
64198;SHT31;50512;53.666;9.700;2022-08-18T13:35:16;26.59;69.87
64198;SHT31;50512;53.666;9.700;2022-08-18T13:37:42;26.63;70.20
64198;SHT31;50512;53.666;9.700;2022-08-18T13:40:08;26.66;70.64
64198;SHT31;50512;53.666;9.700;2022-08-18T13:42:41;26.72;69.74
64198;SHT31;50512;53.666;9.700;2022-08-18T13:45:08;26.70;70.05
64198;SHT31;50512;53.666;9.700;2022-08-18T13:47:34;26.74;68.96
64198;SHT31;50512;53.666;9.700;2022-08-18T13:49:59;26.77;70.35
64198;SHT31;50512;53.666;9.700;2022-08-18T13:52:27;26.72;69.83
64198;SHT31;50512;53.666;9.700;2022-08-18T13:54:53;26.67;70.42
64198;SHT31;50512;53.666;9.700;2022-08-18T13:57:18;26.72;69.99
64198;SHT31;50512;53.666;9.700;2022-08-18T13:59:44;26.74;69.74
64198;SHT31;50512;53.666;9.700;2022-08-18T14:02:09;26.67;69.61
64198;SHT31;50512;53.666;9.700;2022-08-18T14:04:36;26.53;68.80
64198;SHT31;50512;53.666;9.700;2022-08-18T14:07:01;26.55;69.82
64198;SHT31;50512;53.666;9.700;2022-08-18T14:09:29;26.53;68.63
64198;SHT31;50512;53.666;9.700;2022-08-18T14:11:54;26.57;70.14
64198;SHT31;50512;53.666;9.700;2022-08-18T14:14:20;26.69;69.63
64198;SHT31;50512;53.666;9.700;2022-08-18T14:16:46;26.77;69.64
64198;SHT31;50512;53.666;9.700;2022-08-18T14:19:12;26.74;69.29
64198;SHT31;50512;53.666;9.700;2022-08-18T14:21:40;26.53;69.32
64198;SHT31;50512;53.666;9.700;2022-08-18T14:24:06;26.43;69.37
64198;SHT31;50512;53.666;9.700;2022-08-18T14:26:33;26.19;69.92
64198;SHT31;50512;53.666;9.700;2022-08-18T14:28:58;26.05;71.38
64198;SHT31;50512;53.666;9.700;2022-08-18T14:31:24;25.97;70.85
64198;SHT31;50512;53.666;9.700;2022-08-18T14:33:49;25.83;70.77
64198;SHT31;50512;53.666;9.700;2022-08-18T14:36:15;25.85;71.56
64198;SHT31;50512;53.666;9.700;2022-08-18T14:38:41;25.92;71.02
64198;SHT31;50512;53.666;9.700;2022-08-18T14:41:09;26.06;71.94
64198;SHT31;50512;53.666;9.700;2022-08-18T14:43:36;26.04;71.86
64198;SHT31;50512;53.666;9.700;2022-08-18T14:46:02;25.88;71.39
64198;SHT31;50512;53.666;9.700;2022-08-18T14:48:28;25.80;71.75
64198;SHT31;50512;53.666;9.700;2022-08-18T14:50:54;25.74;72.47
64198;SHT31;50512;53.666;9.700;2022-08-18T14:53:22;25.57;72.74
64198;SHT31;50512;53.666;9.700;2022-08-18T14:55:49;25.42;73.34
64198;SHT31;50512;53.666;9.700;2022-08-18T14:58:15;25.43;73.53
64198;SHT31;50512;53.666;9.700;2022-08-18T15:00:42;25.50;73.54
64198;SHT31;50512;53.666;9.700;2022-08-18T15:03:07;25.43;73.84
64198;SHT31;50512;53.666;9.700;2022-08-18T15:05:33;25.28;73.45
64198;SHT31;50512;53.666;9.700;2022-08-18T15:07:58;25.23;73.13
64198;SHT31;50512;53.666;9.700;2022-08-18T15:10:24;25.14;73.73
64198;SHT31;50512;53.666;9.700;2022-08-18T15:12:50;25.01;74.03
64198;SHT31;50512;53.666;9.700;2022-08-18T15:15:16;24.90;73.41
64198;SHT31;50512;53.666;9.700;2022-08-18T15:17:43;24.73;74.99
64198;SHT31;50512;53.666;9.700;2022-08-18T15:20:09;24.73;76.23
64198;SHT31;50512;53.666;9.700;2022-08-18T15:22:38;24.59;76.50
64198;SHT31;50512;53.666;9.700;2022-08-18T15:25:04;24.47;76.23
64198;SHT31;50512;53.666;9.700;2022-08-18T15:27:31;24.43;76.59
64198;SHT31;50512;53.666;9.700;2022-08-18T15:30:00;24.30;77.26
64198;SHT31;50512;53.666;9.700;2022-08-18T15:32:25;24.22;76.99
64198;SHT31;50512;53.666;9.700;2022-08-18T15:34:52;24.18;77.74
64198;SHT31;50512;53.666;9.700;2022-08-18T15:37:18;24.22;78.09
64198;SHT31;50512;53.666;9.700;2022-08-18T15:39:44;24.25;77.36
64198;SHT31;50512;53.666;9.700;2022-08-18T15:42:10;24.20;77.32
64198;SHT31;50512;53.666;9.700;2022-08-18T15:44:36;24.29;77.66
64198;SHT31;50512;53.666;9.700;2022-08-18T15:47:02;24.20;76.47
64198;SHT31;50512;53.666;9.700;2022-08-18T15:49:28;24.10;76.82
64198;SHT31;50512;53.666;9.700;2022-08-18T15:51:54;24.05;77.39
64198;SHT31;50512;53.666;9.700;2022-08-18T15:54:20;23.97;77.82
64198;SHT31;50512;53.666;9.700;2022-08-18T15:56:45;23.91;77.39
64198;SHT31;50512;53.666;9.700;2022-08-18T15:59:11;23.86;77.91
64198;SHT31;50512;53.666;9.700;2022-08-18T16:01:36;23.81;78.37
64198;SHT31;50512;53.666;9.700;2022-08-18T16:04:03;23.77;77.92
64198;SHT31;50512;53.666;9.700;2022-08-18T16:06:28;23.74;77.88